Clinton, OK (73601)

1:49 PM CDT on March 24, 2017 (GMT -0500)
Clinton | | Change Station
Active Advisory: Wind Advisory

Elev 1578 ft 35.52 °N, 98.97 °W | Updated 21 seconds ago

Clear
Clear
72.9 °F
Feels Like 75 °F
N
7.6
Wind Variable Wind from SE
Gusts 11.0 mph

Today
High -- | Low -- °F
--% Chance of Precip.
Yesterday
High -- | Low -- °F
Precip. -- in
Pressure 29.69 in
Visibility 10.0 miles
Clouds Clear
Heat Index 75 °F
Dew Point 39 °F
Humidity 19%
Rainfall 0.02 in
Snow Depth Not available.
7:33 AM 7:51 PM
Waning Crescent, 13% visible
METAR KCLK 241855Z AUTO 18026G30KT 10SM CLR 21/M03 A2969 RMK AO2
Pressure 29.69 in
Visibility 10.0 miles
Clouds Clear
Heat Index 75 °F
Dew Point 39 °F
Humidity 19%
Rainfall 0.02 in
Snow Depth Not available.
7:33 AM 7:51 PM
Waning Crescent, 13% visible
METAR KCLK 241855Z AUTO 18026G30KT 10SM CLR 21/M03 A2969 RMK AO2

Get Your Daily Forecast Email!

Thanks for signing up!

Be on the lookout for a verification email in your inbox.

You'll start receiving severe weather alerts in your inbox..

×

10-Day Weather Forecast

Almanac

Astronomy

Mar. 24, 2017 Rise Set
Actual Time
Civil Twilight
Nautical Twilight
Astronomical Twilight
Moon
Length of Visible Light
Length of Day
Tomorrow will be .
, % of the Moon is Illuminated

Today's Extremes

State Highs State Lows

Community

WunderPhotos

Upload Photos

1,962,540 photos uploaded!

WunderBlog® & News

Nearby

Air Quality

  Air Quality AQ Index Pollutant
Not available.

Snow Depth

Station Depth Elevation

Earthquake Activity

City Distance Mag. Time & Date
Minimum magnitude displayed is 2.5.

Earthquake Activity

City Distance Mag. Time & Date
Minimum magnitude displayed is 2.5.

Coastal Water Temperatures

Place Temperature

Stations

Nearby Weather Stations

Station Location Temp. Windchill Dew Point Humidity Wind Precip. Elev Updated Type
                   

Watches & Warnings

Wind Advisory
Issued: 6:21 AM CDT Mar. 24, 2017 – National Weather Service

... Wind Advisory remains in effect from 10 am this morning to
7 PM CDT this evening...

* timing... mid-morning until early evening.

* Winds... 25 to 35 mph. Gusts 45 mph.

Precautionary/preparedness actions...

A Wind Advisory means that sustained winds greater than 30 mph
are expected.